TimeEDT,TemperatureF,Dew PointF,Humidity,Sea Level PressureIn,VisibilityMPH,Wind Direction,Wind SpeedMPH,Gust SpeedMPH,PrecipitationIn,Events,Conditions,WindDirDegrees,DateUTC
12:51 AM,46.9,45.0,93,30.24,9.0,Calm,Calm,-,N/A,,Clear,0,2011-10-05 04:51:00
1:51 AM,46.9,45.0,93,30.25,10.0,Calm,Calm,-,N/A,,Clear,0,2011-10-05 05:51:00
2:51 AM,45.0,44.1,97,30.25,9.0,Calm,Calm,-,N/A,Fog,Shallow Fog,0,2011-10-05 06:51:00
3:51 AM,43.0,41.0,93,30.25,10.0,SW,3.5,-,N/A,,Clear,220,2011-10-05 07:51:00
4:51 AM,43.0,41.0,93,30.26,10.0,SW,4.6,-,N/A,,Clear,220,2011-10-05 08:51:00
5:51 AM,44.1,43.0,96,30.27,10.0,SW,4.6,-,N/A,,Clear,220,2011-10-05 09:51:00
6:51 AM,45.0,44.1,97,30.28,9.0,SW,3.5,-,N/A,,Clear,230,2011-10-05 10:51:00
7:51 AM,45.0,44.1,97,30.30,4.0,Calm,Calm,-,N/A,Fog,Partly Cloudy,0,2011-10-05 11:51:00
8:51 AM,51.1,48.0,89,30.30,6.0,WSW,4.6,-,N/A,,Clear,240,2011-10-05 12:51:00
9:51 AM,55.9,50.0,80,30.30,10.0,WSW,3.5,-,N/A,,Clear,240,2011-10-05 13:51:00
10:51 AM,61.0,50.0,67,30.30,10.0,West,3.5,-,N/A,,Scattered Clouds,260,2011-10-05 14:51:00
11:51 AM,64.9,48.9,56,30.30,10.0,NW,5.8,-,N/A,,Scattered Clouds,320,2011-10-05 15:51:00
12:51 PM,69.1,50.0,51,30.29,10.0,NW,5.8,-,N/A,,Partly Cloudy,320,2011-10-05 16:51:00
1:51 PM,71.1,48.0,44,30.27,10.0,NW,5.8,-,N/A,,Scattered Clouds,320,2011-10-05 17:51:00
2:51 PM,71.1,48.9,45,30.25,10.0,Variable,5.8,-,N/A,,Partly Cloudy,0,2011-10-05 18:51:00
3:51 PM,73.0,48.0,41,30.25,10.0,NNW,4.6,-,N/A,,Partly Cloudy,330,2011-10-05 19:51:00
4:51 PM,71.1,48.0,44,30.25,10.0,WNW,6.9,-,N/A,,Partly Cloudy,300,2011-10-05 20:51:00
5:51 PM,69.1,48.9,49,30.25,10.0,NNW,8.1,-,N/A,,Partly Cloudy,330,2011-10-05 21:51:00
6:51 PM,63.0,48.9,60,30.26,10.0,North,4.6,-,N/A,,Partly Cloudy,350,2011-10-05 22:51:00
7:51 PM,60.1,46.9,62,30.28,10.0,North,5.8,-,N/A,,Partly Cloudy,360,2011-10-05 23:51:00
8:51 PM,57.9,50.0,75,30.28,10.0,NNE,9.2,-,N/A,,Mostly Cloudy,30,2011-10-06 00:51:00
9:51 PM,55.0,51.1,86,30.30,10.0,NE,6.9,-,N/A,,Partly Cloudy,40,2011-10-06 01:51:00
10:51 PM,53.6,51.8,94,30.30,10.0,ENE,3.5,-,N/A,,Clear,60,2011-10-06 02:51:00
11:51 PM,52.0,50.0,93,30.31,9.0,East,5.8,-,N/A,,Partly Cloudy,80,2011-10-06 03:51:00